Time;durP1;ratioP1;P1;durP2;ratioP2;P2;SDS_P1;SDS_P2;PMS_P1;PMS_P2;Temp;Humidity;BMP_temperature;BMP_pressure;BME280_temperature;BME280_humidity;BME280_pressure;Samples;Min_cycle;Max_cycle;Signal;HPM_P1;HPM_P2
2022/08/04 00:00:23;;;;;;;8.90;4.53;;;19.80;99.90;;;;;;4996746;28;20121;-58
2022/08/04 00:03:27;;;;;;;8.90;4.20;;;19.80;99.90;;;;;;4992543;28;20109;-58
2022/08/04 00:06:14;;;;;;;11.40;4.63;;;19.80;99.90;;;;;;4990184;28;20026;-58
2022/08/04 00:08:57;;;;;;;12.15;4.38;;;19.90;99.90;;;;;;4997881;28;20045;-58
2022/08/04 00:11:28;;;;;;;10.48;4.28;;;20.00;99.90;;;;;;4998166;28;20026;-59
2022/08/04 00:14:00;;;;;;;13.98;3.65;;;19.90;99.90;;;;;;5003270;28;20021;-58
2022/08/04 00:16:37;;;;;;;5.55;3.63;;;20.00;99.90;;;;;;4988921;28;20039;-59
2022/08/04 00:19:15;;;;;;;12.32;4.65;;;19.90;99.90;;;;;;4995271;28;20378;-58
2022/08/04 00:21:47;;;;;;;8.00;4.05;;;20.00;99.90;;;;;;4996049;28;20536;-58
2022/08/04 00:24:14;;;;;;;11.32;4.57;;;19.90;99.90;;;;;;4995567;28;20521;-59
2022/08/04 00:26:40;;;;;;;8.82;3.95;;;19.90;99.90;;;;;;4994682;28;20034;-58
2022/08/04 00:29:06;;;;;;;12.93;4.65;;;19.80;99.90;;;;;;5001710;28;20035;-58
2022/08/04 00:31:32;;;;;;;13.55;4.75;;;19.80;99.90;;;;;;4993895;28;20121;-57
2022/08/04 00:33:59;;;;;;;11.35;4.25;;;19.80;99.90;;;;;;4998945;28;20121;-57
2022/08/04 00:36:26;;;;;;;12.57;5.40;;;19.80;99.90;;;;;;5004395;28;20028;-57
2022/08/04 00:38:53;;;;;;;11.50;4.38;;;19.70;99.90;;;;;;4996248;28;20029;-57
2022/08/04 00:41:33;;;;;;;11.65;5.25;;;19.80;99.90;;;;;;4995229;28;20394;-58
2022/08/04 00:44:11;;;;;;;10.10;5.65;;;19.70;99.90;;;;;;4986687;28;20453;-58
2022/08/04 00:46:56;;;;;;;11.38;5.07;;;19.70;99.90;;;;;;4985047;28;20053;-58
2022/08/04 00:49:45;;;;;;;9.50;5.60;;;19.70;99.90;;;;;;4994187;28;20042;-58
2022/08/04 00:52:39;;;;;;;13.32;6.10;;;19.80;99.90;;;;;;4990869;28;20529;-58
2022/08/04 00:55:49;;;;;;;9.27;5.40;;;19.80;99.90;;;;;;4993163;28;20403;-58
2022/08/04 00:58:31;;;;;;;12.50;5.55;;;19.80;99.90;;;;;;4991290;28;20033;-58
2022/08/04 01:01:38;;;;;;;18.25;6.35;;;19.80;99.90;;;;;;4993566;28;20085;-57
2022/08/04 01:04:15;;;;;;;9.93;6.65;;;19.90;99.90;;;;;;4984932;28;20453;-58
2022/08/04 01:07:08;;;;;;;15.45;6.60;;;19.90;99.90;;;;;;4995183;28;20030;-58
2022/08/04 01:09:42;;;;;;;11.77;5.65;;;19.80;99.90;;;;;;5012507;28;20460;-58
2022/08/04 01:12:55;;;;;;;11.30;5.95;;;19.70;99.90;;;;;;4982199;28;20109;-57
2022/08/04 01:15:42;;;;;;;13.80;7.20;;;19.70;99.90;;;;;;4984961;28;20414;-57
2022/08/04 01:18:19;;;;;;;15.32;8.23;;;19.70;99.90;;;;;;4976572;28;20090;-58
2022/08/04 01:21:20;;;;;;;16.45;7.88;;;19.70;99.90;;;;;;4984201;28;20034;-58
2022/08/04 01:24:14;;;;;;;13.10;6.57;;;19.60;99.90;;;;;;4892721;29;20045;-57
2022/08/04 01:26:54;;;;;;;11.50;7.00;;;19.60;99.90;;;;;;4887438;29;20036;-58
2022/08/04 01:29:22;;;;;;;11.30;7.78;;;19.60;99.90;;;;;;4890999;29;20048;-57
2022/08/04 01:31:59;;;;;;;15.60;7.97;;;19.60;99.90;;;;;;4892311;29;20116;-58
2022/08/04 01:34:39;;;;;;;13.80;8.82;;;19.60;99.90;;;;;;4891387;29;20040;-57
2022/08/04 01:37:35;;;;;;;20.10;9.73;;;19.60;99.90;;;;;;4890955;29;20032;-58
2022/08/04 01:40:05;;;;;;;18.25;9.27;;;19.60;99.90;;;;;;4892073;29;20537;-58
2022/08/04 01:42:33;;;;;;;17.52;8.80;;;19.60;99.90;;;;;;4888198;29;20044;-58
2022/08/04 01:45:08;;;;;;;18.92;8.90;;;19.60;99.90;;;;;;4892551;29;20055;-58
2022/08/04 01:47:36;;;;;;;19.88;9.02;;;19.50;99.90;;;;;;4890596;29;21522;-59
2022/08/04 01:50:06;;;;;;;16.52;8.27;;;19.60;99.90;;;;;;4892291;29;20032;-59
2022/08/04 01:52:33;;;;;;;16.05;9.02;;;19.50;99.90;;;;;;4910554;29;20133;-59
2022/08/04 01:55:01;;;;;;;19.77;9.32;;;19.50;99.90;;;;;;4911291;29;20138;-59
2022/08/04 01:57:28;;;;;;;17.98;8.77;;;19.50;99.90;;;;;;4920228;29;20038;-59
2022/08/04 01:59:58;;;;;;;15.52;9.07;;;19.60;99.90;;;;;;4930896;28;20390;-58
2022/08/04 02:02:24;;;;;;;22.95;10.20;;;19.40;99.90;;;;;;4992802;28;20023;-58
2022/08/04 02:04:50;;;;;;;20.75;10.20;;;19.50;99.90;;;;;;4993978;28;20368;-58
2022/08/04 02:07:47;;;;;;;19.27;10.45;;;19.50;99.90;;;;;;4992401;28;20042;-58
2022/08/04 02:10:28;;;;;;;23.02;9.95;;;19.50;99.90;;;;;;4992148;28;20026;-59
2022/08/04 02:13:16;;;;;;;19.63;10.98;;;19.50;99.90;;;;;;4992054;28;20027;-58
2022/08/04 02:16:03;;;;;;;23.98;11.98;;;19.40;99.90;;;;;;4986976;28;20038;-58
2022/08/04 02:18:43;;;;;;;23.95;11.70;;;19.40;99.90;;;;;;4995941;28;20483;-58
2022/08/04 02:21:08;;;;;;;19.55;11.07;;;19.40;99.90;;;;;;4997917;28;20061;-58
2022/08/04 02:23:40;;;;;;;22.33;10.60;;;19.40;99.90;;;;;;4990743;28;20069;-58
2022/08/04 02:26:15;;;;;;;22.83;10.65;;;19.40;99.90;;;;;;4995629;28;20037;-58
2022/08/04 02:28:43;;;;;;;20.88;11.13;;;19.50;99.90;;;;;;4998257;28;20027;-58
2022/08/04 02:31:30;;;;;;;20.60;11.02;;;19.40;99.90;;;;;;5002843;28;20450;-58
2022/08/04 02:34:26;;;;;;;18.52;9.68;;;19.40;99.90;;;;;;4992248;28;20038;-58
2022/08/04 02:36:53;;;;;;;20.42;9.50;;;19.40;99.90;;;;;;4995450;28;20066;-57
2022/08/04 02:39:20;;;;;;;17.20;7.93;;;19.50;99.90;;;;;;4994564;28;20027;-57
2022/08/04 02:41:47;;;;;;;21.17;8.82;;;19.40;99.90;;;;;;4996984;28;20026;-58
2022/08/04 02:44:18;;;;;;;16.45;7.65;;;19.40;99.90;;;;;;4990769;28;20406;-58
2022/08/04 02:46:47;;;;;;;13.73;7.35;;;19.40;99.90;;;;;;4990307;28;20030;-58
2022/08/04 02:49:14;;;;;;;11.73;6.63;;;19.40;99.90;;;;;;4993374;28;20375;-58
2022/08/04 02:51:43;;;;;;;13.23;5.88;;;19.40;99.90;;;;;;4993098;28;20026;-58
2022/08/04 02:54:09;;;;;;;13.85;5.78;;;19.40;99.90;;;;;;4992956;28;20095;-57
2022/08/04 02:56:37;;;;;;;12.77;6.90;;;19.30;99.90;;;;;;4991602;28;20109;-58
2022/08/04 02:59:08;;;;;;;11.20;6.18;;;19.30;99.90;;;;;;4995630;28;20038;-58
2022/08/04 03:01:35;;;;;;;14.10;5.93;;;19.30;99.90;;;;;;4987784;28;20133;-59
2022/08/04 03:04:42;;;;;;;9.57;4.95;;;19.20;99.90;;;;;;4988829;28;20046;-58
2022/08/04 03:07:38;;;;;;;9.27;5.57;;;19.30;99.90;;;;;;4996269;28;20036;-58
2022/08/04 03:10:34;;;;;;;9.50;5.05;;;19.20;99.90;;;;;;4989490;28;20050;-56
2022/08/04 03:13:17;;;;;;;13.93;5.65;;;19.10;99.90;;;;;;4988455;28;20032;-57
2022/08/04 03:16:11;;;;;;;13.32;5.50;;;19.10;99.90;;;;;;4990742;28;20040;-58
2022/08/04 03:19:04;;;;;;;9.60;4.95;;;19.10;99.90;;;;;;4995320;28;20029;-57
2022/08/04 03:21:35;;;;;;;11.25;4.75;;;19.10;99.90;;;;;;4987621;28;20034;-58
2022/08/04 03:24:49;;;;;;;7.90;4.75;;;19.10;99.90;;;;;;4992915;28;20042;-58
2022/08/04 03:27:33;;;;;;;11.88;5.15;;;19.00;99.90;;;;;;4991055;28;20122;-57
2022/08/04 03:30:14;;;;;;;11.68;4.88;;;19.00;99.90;;;;;;4992755;28;20069;-58
2022/08/04 03:32:42;;;;;;;10.43;4.28;;;18.90;99.90;;;;;;4988428;28;20030;-58
2022/08/04 03:35:25;;;;;;;14.85;4.68;;;18.90;99.90;;;;;;4992280;28;20038;-58
2022/08/04 03:37:54;;;;;;;9.70;4.05;;;18.90;99.90;;;;;;4996932;28;20109;-59
2022/08/04 03:40:38;;;;;;;10.43;3.85;;;18.90;99.90;;;;;;4996938;28;20039;-58
2022/08/04 03:43:28;;;;;;;10.68;4.30;;;18.90;99.90;;;;;;4993590;28;20398;-57
2022/08/04 03:45:57;;;;;;;11.48;3.58;;;18.90;99.90;;;;;;4993941;28;20054;-57
2022/08/04 03:48:44;;;;;;;7.20;3.75;;;18.90;99.90;;;;;;4999075;28;20041;-58
2022/08/04 03:54:47;;;;;;;9.20;3.60;;;18.90;99.90;;;;;;5027172;28;20059;-59
2022/08/04 03:57:28;;;;;;;7.00;3.78;;;18.90;99.90;;;;;;5028939;28;20034;-58
2022/08/04 04:00:10;;;;;;;6.65;3.03;;;18.90;99.90;;;;;;5023575;28;20040;-58
2022/08/04 04:03:11;;;;;;;3.78;3.10;;;18.90;99.90;;;;;;5028383;28;20421;-58
2022/08/04 04:05:48;;;;;;;9.32;3.38;;;18.90;99.90;;;;;;5025025;28;20033;-58
2022/08/04 04:08:28;;;;;;;6.80;3.30;;;18.90;99.90;;;;;;5028247;28;20389;-58
2022/08/04 04:11:22;;;;;;;5.90;3.00;;;18.90;99.90;;;;;;5027168;28;20029;-58
2022/08/04 04:14:23;;;;;;;9.80;3.33;;;18.90;99.90;;;;;;5029107;28;20124;-58
2022/08/04 04:17:04;;;;;;;5.00;3.28;;;18.90;99.90;;;;;;4987295;28;20026;-58
2022/08/04 04:20:12;;;;;;;6.65;3.53;;;18.90;99.90;;;;;;4987999;28;20568;-58
2022/08/04 04:23:01;;;;;;;5.28;3.22;;;18.90;99.90;;;;;;4986201;28;20045;-58
2022/08/04 04:25:33;;;;;;;5.88;2.97;;;18.90;99.90;;;;;;4976547;28;20538;-58
2022/08/04 04:28:14;;;;;;;8.45;3.97;;;18.90;99.90;;;;;;4965986;28;20451;-59
2022/08/04 04:31:03;;;;;;;6.07;2.38;;;18.80;99.90;;;;;;4978693;28;20038;-58
2022/08/04 04:33:49;;;;;;;7.47;2.28;;;18.80;99.90;;;;;;4973262;28;20035;-59
2022/08/04 04:36:39;;;;;;;5.88;2.00;;;18.60;99.90;;;;;;4973896;28;20118;-59
2022/08/04 04:39:22;;;;;;;4.13;1.98;;;18.60;99.90;;;;;;4971166;28;20121;-58
2022/08/04 04:42:12;;;;;;;4.72;1.55;;;18.40;99.90;;;;;;4964088;28;20030;-58
2022/08/04 04:45:12;;;;;;;3.97;1.30;;;18.40;99.90;;;;;;4971443;28;20047;-59
2022/08/04 04:47:47;;;;;;;6.07;1.73;;;18.30;99.90;;;;;;4967846;28;20045;-58
2022/08/04 04:50:36;;;;;;;6.43;1.90;;;18.30;99.90;;;;;;4977249;28;20471;-58
2022/08/04 04:53:28;;;;;;;5.35;2.08;;;18.30;99.90;;;;;;4993379;28;20031;-59
2022/08/04 04:56:10;;;;;;;7.10;1.75;;;18.30;99.90;;;;;;4995318;28;20041;-58
2022/08/04 04:58:38;;;;;;;6.60;1.67;;;18.30;99.90;;;;;;4982009;28;20061;-58
2022/08/04 05:01:15;;;;;;;4.32;1.40;;;18.30;99.90;;;;;;4995704;28;20042;-60
2022/08/04 05:04:02;;;;;;;4.50;1.80;;;18.30;99.90;;;;;;4993558;28;20050;-59
2022/08/04 05:06:36;;;;;;;6.13;1.67;;;18.30;99.90;;;;;;4991074;28;20034;-59
2022/08/04 05:09:25;;;;;;;8.95;2.03;;;18.30;99.90;;;;;;4993735;28;20122;-58
2022/08/04 05:12:12;;;;;;;6.82;1.83;;;18.40;99.90;;;;;;4995370;28;20049;-60
2022/08/04 05:14:45;;;;;;;9.25;2.42;;;18.50;99.90;;;;;;4989940;28;20049;-59
2022/08/04 05:17:43;;;;;;;8.52;1.63;;;18.60;99.90;;;;;;4993433;28;20056;-58
2022/08/04 05:20:22;;;;;;;7.07;1.63;;;18.60;99.90;;;;;;4978943;28;20478;-58
2022/08/04 05:22:55;;;;;;;6.38;1.30;;;18.60;99.90;;;;;;4994252;28;20113;-58
2022/08/04 05:25:25;;;;;;;6.53;1.83;;;18.70;99.90;;;;;;4997475;28;20111;-59
2022/08/04 05:28:09;;;;;;;4.00;1.52;;;18.80;99.90;;;;;;4998200;28;20030;-58
2022/08/04 05:30:47;;;;;;;4.00;1.38;;;18.80;99.90;;;;;;4989868;28;20038;-59
2022/08/04 05:33:24;;;;;;;6.65;1.83;;;18.80;99.90;;;;;;4985357;28;20023;-59
2022/08/04 05:35:55;;;;;;;5.60;1.73;;;18.80;99.90;;;;;;4992904;28;20118;-58
2022/08/04 05:38:26;;;;;;;4.00;1.40;;;18.80;99.90;;;;;;4991558;28;20045;-59
2022/08/04 05:40:53;;;;;;;3.45;1.48;;;18.80;99.90;;;;;;4998069;28;20069;-58
2022/08/04 05:43:20;;;;;;;8.85;2.10;;;18.80;99.90;;;;;;4980043;28;20038;-58
2022/08/04 05:45:47;;;;;;;10.05;1.98;;;18.90;99.90;;;;;;4990131;28;20062;-58
2022/08/04 05:48:13;;;;;;;8.00;2.20;;;18.80;99.90;;;;;;4990434;28;20061;-57
2022/08/04 05:50:39;;;;;;;10.20;1.85;;;18.70;99.90;;;;;;4989080;28;20061;-57
2022/08/04 05:53:08;;;;;;;5.13;1.52;;;18.60;99.90;;;;;;4998484;28;20034;-57
2022/08/04 05:55:34;;;;;;;8.60;1.90;;;18.70;99.90;;;;;;4987022;28;20037;-57
2022/08/04 05:58:01;;;;;;;4.97;1.90;;;18.70;99.90;;;;;;4991144;28;20030;-57
2022/08/04 06:00:28;;;;;;;6.28;1.50;;;18.60;99.90;;;;;;4991954;28;20038;-59
2022/08/04 06:02:56;;;;;;;4.85;2.15;;;18.50;99.90;;;;;;4989210;28;20027;-58
2022/08/04 06:05:23;;;;;;;5.03;1.67;;;18.40;99.90;;;;;;4998602;28;20429;-58
2022/08/04 06:07:49;;;;;;;8.32;1.90;;;18.30;99.90;;;;;;4989635;28;20507;-57
2022/08/04 06:10:16;;;;;;;5.20;1.85;;;18.30;99.90;;;;;;4988058;28;20064;-59
2022/08/04 06:13:05;;;;;;;9.35;2.42;;;18.30;99.90;;;;;;4977580;28;20037;-57
2022/08/04 06:15:36;;;;;;;6.03;1.98;;;18.40;99.90;;;;;;4987772;28;20446;-57
2022/08/04 06:18:05;;;;;;;8.13;2.03;;;18.50;99.90;;;;;;4988684;28;20113;-58
2022/08/04 06:20:35;;;;;;;6.03;2.08;;;18.50;99.90;;;;;;4995733;28;20121;-59
2022/08/04 06:23:06;;;;;;;4.72;1.63;;;18.40;99.90;;;;;;4995141;28;20106;-58
2022/08/04 06:25:37;;;;;;;8.10;1.70;;;18.40;99.90;;;;;;4996422;28;20038;-58
2022/08/04 06:28:05;;;;;;;12.00;2.20;;;18.30;99.90;;;;;;5000573;28;20030;-58
2022/08/04 06:30:33;;;;;;;8.55;2.00;;;18.20;99.90;;;;;;4988008;28;20030;-58
2022/08/04 06:33:01;;;;;;;8.73;2.40;;;18.20;99.90;;;;;;4998816;28;20037;-58
2022/08/04 06:35:30;;;;;;;9.73;1.80;;;18.30;99.90;;;;;;4994754;28;20030;-58
2022/08/04 06:37:56;;;;;;;10.55;2.97;;;18.20;99.90;;;;;;4989311;28;20457;-58
2022/08/04 06:40:23;;;;;;;9.15;1.30;;;18.20;99.90;;;;;;4988103;28;20062;-58
2022/08/04 06:42:51;;;;;;;5.32;2.08;;;18.20;99.90;;;;;;4976563;28;20037;-59
2022/08/04 06:45:18;;;;;;;9.25;2.28;;;18.20;99.90;;;;;;4991282;28;20141;-58
2022/08/04 06:47:46;;;;;;;8.35;2.17;;;18.20;99.90;;;;;;4990673;28;20504;-59
2022/08/04 06:50:12;;;;;;;5.95;1.25;;;18.30;99.90;;;;;;4988599;28;20030;-57
2022/08/04 06:52:38;;;;;;;9.32;1.42;;;18.40;99.90;;;;;;4992274;28;20030;-58
2022/08/04 06:55:06;;;;;;;4.10;1.45;;;18.20;99.90;;;;;;4989011;28;20030;-58
2022/08/04 06:57:34;;;;;;;5.95;1.92;;;18.10;99.90;;;;;;4996737;28;20080;-59
2022/08/04 07:00:10;;;;;;;4.88;1.17;;;18.10;99.90;;;;;;4993422;28;20030;-58
2022/08/04 07:02:49;;;;;;;7.10;0.95;;;18.20;99.90;;;;;;4988256;28;20026;-58
2022/08/04 07:05:16;;;;;;;5.30;1.25;;;18.20;99.90;;;;;;4993307;28;20053;-58
2022/08/04 07:07:43;;;;;;;5.32;1.27;;;18.20;99.90;;;;;;4983854;28;20072;-59
2022/08/04 07:10:09;;;;;;;4.88;1.27;;;18.10;99.90;;;;;;4995354;28;20026;-58
2022/08/04 07:12:37;;;;;;;7.20;1.40;;;18.20;99.90;;;;;;4993405;28;20045;-57
2022/08/04 07:15:04;;;;;;;7.40;1.60;;;18.20;99.90;;;;;;4994285;28;20022;-57
2022/08/04 07:17:31;;;;;;;4.32;1.25;;;18.30;99.90;;;;;;4992361;28;20048;-57
2022/08/04 07:19:57;;;;;;;6.32;1.67;;;18.30;99.90;;;;;;4992987;28;20030;-57
2022/08/04 07:22:25;;;;;;;6.38;1.38;;;18.30;99.90;;;;;;4994384;28;20516;-57
2022/08/04 07:24:54;;;;;;;4.88;1.85;;;18.40;99.90;;;;;;4992760;28;20566;-56
2022/08/04 07:27:20;;;;;;;12.25;2.38;;;18.40;99.90;;;;;;4987526;28;20026;-59
2022/08/04 07:29:46;;;;;;;5.70;1.48;;;18.40;99.90;;;;;;4992907;28;20080;-58
2022/08/04 07:32:13;;;;;;;5.82;1.23;;;18.40;99.90;;;;;;5000101;28;20033;-57
2022/08/04 07:34:40;;;;;;;9.18;1.60;;;18.40;99.90;;;;;;4991002;28;20022;-57
2022/08/04 07:37:06;;;;;;;8.57;1.63;;;18.40;99.90;;;;;;4992744;28;20030;-58
2022/08/04 07:39:32;;;;;;;5.43;1.38;;;18.50;99.90;;;;;;4995519;28;20081;-58
2022/08/04 07:42:00;;;;;;;7.80;1.80;;;18.60;99.90;;;;;;4993183;28;20034;-57
2022/08/04 07:44:26;;;;;;;6.75;1.65;;;18.60;99.90;;;;;;4996632;28;20054;-58
2022/08/04 07:46:52;;;;;;;6.88;1.10;;;18.70;99.90;;;;;;4997053;28;20477;-58
2022/08/04 07:49:19;;;;;;;10.68;1.00;;;18.70;99.90;;;;;;4987423;28;20058;-58
2022/08/04 07:51:45;;;;;;;7.40;1.02;;;18.70;99.90;;;;;;4987693;28;20034;-59
2022/08/04 07:54:12;;;;;;;2.60;1.13;;;18.80;99.90;;;;;;4991695;28;20066;-57
2022/08/04 07:56:40;;;;;;;4.97;0.90;;;18.80;99.90;;;;;;4990389;28;20495;-59
2022/08/04 07:59:07;;;;;;;4.93;0.70;;;18.80;99.90;;;;;;4995529;28;20081;-59
2022/08/04 08:01:36;;;;;;;5.25;1.13;;;18.80;99.90;;;;;;4993704;28;20029;-58
2022/08/04 08:04:05;;;;;;;9.65;2.00;;;18.80;99.90;;;;;;4990550;28;20085;-58
2022/08/04 08:06:31;;;;;;;4.57;0.95;;;18.90;99.90;;;;;;4988280;28;20034;-58
2022/08/04 08:08:59;;;;;;;5.03;1.00;;;19.00;99.90;;;;;;4991214;28;20072;-58
2022/08/04 08:11:26;;;;;;;11.02;1.08;;;19.00;99.90;;;;;;4989737;28;20088;-58
2022/08/04 08:13:52;;;;;;;4.72;0.77;;;19.10;99.90;;;;;;4988505;28;20089;-58
2022/08/04 08:16:19;;;;;;;6.53;1.20;;;19.20;99.90;;;;;;4990911;28;20034;-58
2022/08/04 08:18:46;;;;;;;5.00;1.85;;;19.30;99.90;;;;;;4990389;28;20066;-57
2022/08/04 08:21:12;;;;;;;8.93;1.10;;;19.40;99.90;;;;;;4986074;28;20022;-58
2022/08/04 08:23:38;;;;;;;8.60;1.42;;;19.40;99.90;;;;;;4989142;28;20137;-58
2022/08/04 08:26:05;;;;;;;8.30;1.27;;;19.40;99.90;;;;;;4984934;28;20125;-57
2022/08/04 08:28:31;;;;;;;8.10;1.20;;;19.60;99.90;;;;;;4981928;28;20097;-59
2022/08/04 08:30:56;;;;;;;7.20;1.90;;;19.60;99.90;;;;;;4983568;28;20026;-58
2022/08/04 08:33:24;;;;;;;9.60;1.20;;;19.70;99.90;;;;;;4984175;28;20402;-59
2022/08/04 08:36:10;;;;;;;7.80;1.10;;;19.80;99.90;;;;;;4990116;28;20026;-58
2022/08/04 08:38:46;;;;;;;3.47;1.23;;;19.90;99.90;;;;;;4982769;28;20034;-58
2022/08/04 08:41:20;;;;;;;6.35;2.20;;;20.00;99.90;;;;;;4984103;28;20034;-58
2022/08/04 08:44:23;;;;;;;3.03;0.70;;;20.10;99.90;;;;;;4996204;28;20050;-59
2022/08/04 08:47:01;;;;;;;6.05;0.77;;;20.10;99.90;;;;;;4987491;28;20148;-57
2022/08/04 08:49:36;;;;;;;10.35;1.77;;;20.20;99.90;;;;;;4990456;28;20066;-59
2022/08/04 08:52:21;;;;;;;4.07;1.00;;;20.50;99.90;;;;;;4987628;28;20443;-58
2022/08/04 08:54:59;;;;;;;7.63;1.10;;;20.60;99.90;;;;;;4983264;28;20467;-59
2022/08/04 08:57:25;;;;;;;4.40;0.80;;;20.70;99.90;;;;;;4991156;28;20030;-59
2022/08/04 09:00:15;;;;;;;2.00;0.60;;;20.80;99.90;;;;;;4989682;28;20478;-58
2022/08/04 09:02:52;;;;;;;3.85;1.02;;;20.90;99.90;;;;;;4981815;28;20470;-59
2022/08/04 09:05:45;;;;;;;3.90;1.00;;;21.20;99.90;;;;;;4989569;28;20505;-58
2022/08/04 09:08:36;;;;;;;5.30;1.17;;;21.40;99.90;;;;;;4987779;28;20123;-58
2022/08/04 09:11:10;;;;;;;4.18;0.88;;;21.60;99.90;;;;;;4985983;28;20116;-58
2022/08/04 09:13:48;;;;;;;3.20;0.70;;;21.70;99.90;;;;;;4984366;28;20101;-58
2022/08/04 09:16:23;;;;;;;6.40;1.13;;;21.70;99.90;;;;;;4980384;28;20081;-57
2022/08/04 09:19:03;;;;;;;2.70;0.60;;;21.70;99.90;;;;;;4983115;28;20105;-58
2022/08/04 09:21:32;;;;;;;3.15;0.75;;;21.60;99.90;;;;;;4986242;28;20061;-58
2022/08/04 09:24:14;;;;;;;3.15;0.40;;;21.40;99.90;;;;;;4986536;28;20117;-57
2022/08/04 09:26:40;;;;;;;;;;;21.30;99.90;;;;;;4983154;28;20402;-57
2022/08/04 09:29:17;;;;;;;2.22;0.63;;;21.50;99.90;;;;;;4985427;28;19910;-57
2022/08/04 09:32:07;;;;;;;4.97;1.00;;;21.60;99.90;;;;;;4983590;28;20021;-58
2022/08/04 09:34:55;;;;;;;2.72;0.70;;;21.80;99.90;;;;;;4984974;28;20383;-59
2022/08/04 09:37:21;;;;;;;4.38;1.00;;;21.70;99.90;;;;;;4987958;28;20034;-58
2022/08/04 09:39:58;;;;;;;4.82;0.63;;;21.80;99.90;;;;;;4984810;28;20072;-58
2022/08/04 09:42:35;;;;;;;2.72;1.10;;;21.90;99.90;;;;;;4985822;28;20050;-58
2022/08/04 09:45:04;;;;;;;4.78;1.02;;;22.00;99.90;;;;;;4985181;28;20460;-58
2022/08/04 09:47:48;;;;;;;3.08;0.60;;;22.40;99.90;;;;;;4980933;28;20505;-58
2022/08/04 09:50:32;;;;;;;2.92;0.70;;;22.50;99.90;;;;;;4990438;28;20031;-58
2022/08/04 09:52:58;;;;;;;5.53;0.60;;;22.50;99.90;;;;;;4983041;28;20057;-58
2022/08/04 09:55:48;;;;;;;1.85;0.40;;;22.30;99.90;;;;;;4986971;28;21024;-58
2022/08/04 09:58:40;;;;;;;1.80;0.65;;;22.20;99.90;;;;;;4980155;28;20108;-58
2022/08/04 10:01:10;;;;;;;5.50;1.08;;;22.20;99.90;;;;;;4998896;28;20099;-58
2022/08/04 10:03:40;;;;;;;0.98;0.50;;;22.00;99.90;;;;;;4984174;28;20131;-59
2022/08/04 10:06:26;;;;;;;2.08;0.60;;;22.00;99.90;;;;;;4990000;28;20077;-58
2022/08/04 10:09:24;;;;;;;4.72;0.57;;;22.20;99.90;;;;;;4985426;28;20033;-59
2022/08/04 10:11:56;;;;;;;1.38;0.40;;;22.20;99.90;;;;;;4985945;28;20162;-59
2022/08/04 10:14:37;;;;;;;1.83;0.47;;;22.40;99.90;;;;;;4982425;28;20030;-59
2022/08/04 10:17:50;;;;;;;1.33;0.40;;;22.40;99.90;;;;;;4987279;28;20441;-59
2022/08/04 10:20:39;;;;;;;4.78;0.60;;;22.70;99.70;;;;;;4942743;28;20109;-57
2022/08/04 10:23:26;;;;;;;3.30;0.68;;;23.00;99.90;;;;;;4942048;28;20186;-59
2022/08/04 10:26:30;;;;;;;3.25;0.55;;;22.90;99.50;;;;;;4943998;28;20047;-58
2022/08/04 10:29:09;;;;;;;0.30;0.30;;;22.90;99.50;;;;;;4928684;29;20035;-58
2022/08/04 10:32:03;;;;;;;3.38;0.60;;;23.00;99.40;;;;;;4940448;28;20078;-58
2022/08/04 10:34:35;;;;;;;1.92;0.50;;;22.70;99.90;;;;;;4906360;29;20153;-58
2022/08/04 10:37:19;;;;;;;0.95;0.43;;;22.60;99.90;;;;;;4906418;29;20047;-58
2022/08/04 10:43:40;;;;;;;0.85;0.52;;;23.00;97.90;;;;;;4908006;29;20039;-58
2022/08/04 10:46:20;;;;;;;1.77;0.60;;;23.60;96.30;;;;;;4871023;29;20042;-58
2022/08/04 10:48:45;;;;;;;1.98;0.80;;;23.70;96.30;;;;;;4868716;29;20038;-57
2022/08/04 10:51:27;;;;;;;1.85;0.55;;;23.80;96.00;;;;;;4867691;29;20103;-58
2022/08/04 10:54:01;;;;;;;0.80;0.50;;;23.90;95.70;;;;;;4878557;29;20056;-57
2022/08/04 10:56:42;;;;;;;2.63;0.57;;;24.10;95.00;;;;;;4892873;29;20049;-58
2022/08/04 10:59:26;;;;;;;3.83;0.50;;;24.40;94.90;;;;;;4890894;29;20047;-59
2022/08/04 11:01:59;;;;;;;2.70;0.60;;;24.60;94.30;;;;;;4892512;29;20045;-58
2022/08/04 11:04:44;;;;;;;3.65;0.60;;;24.60;94.20;;;;;;4894331;29;20071;-57
2022/08/04 11:07:11;;;;;;;1.35;0.38;;;24.70;93.90;;;;;;4891493;29;20092;-59
2022/08/04 11:09:39;;;;;;;1.15;0.30;;;24.70;92.90;;;;;;4892407;29;20052;-59
2022/08/04 11:12:12;;;;;;;2.70;0.95;;;24.20;92.60;;;;;;4918254;29;20043;-60
2022/08/04 11:15:24;;;;;;;3.80;0.45;;;24.00;92.50;;;;;;4909686;29;20040;-59
2022/08/04 11:17:56;;;;;;;4.15;0.70;;;24.50;91.60;;;;;;4925587;29;20040;-59
2022/08/04 11:20:37;;;;;;;;;;;25.50;90.70;;;;;;4925426;28;20035;-59
2022/08/04 11:23:17;;;;;;;1.85;0.75;;;26.00;88.20;;;;;;4987756;28;19910;-59
2022/08/04 11:26:15;;;;;;;2.90;0.60;;;26.70;84.00;;;;;;4987831;28;20026;-57
2022/08/04 11:29:10;;;;;;;3.20;0.80;;;26.30;83.50;;;;;;4986495;28;20145;-57
2022/08/04 11:31:42;;;;;;;8.43;0.88;;;26.20;85.10;;;;;;4985059;28;20119;-58
2022/08/04 11:34:24;;;;;;;6.95;2.00;;;26.50;85.70;;;;;;4989077;28;20109;-58
2022/08/04 11:37:10;;;;;;;2.70;0.60;;;27.00;84.00;;;;;;4983782;28;20034;-57
2022/08/04 11:39:43;;;;;;;5.35;0.77;;;27.60;79.30;;;;;;4987800;28;20492;-59
2022/08/04 11:42:25;;;;;;;4.72;0.85;;;27.40;79.10;;;;;;4992557;28;20026;-57
2022/08/04 11:45:09;;;;;;;3.92;0.95;;;26.50;79.30;;;;;;4989253;28;20070;-58
2022/08/04 11:47:56;;;;;;;1.92;0.55;;;25.80;81.60;;;;;;4989129;28;20537;-58
2022/08/04 11:50:24;;;;;;;0.85;0.40;;;25.50;82.20;;;;;;4987441;28;20063;-58
2022/08/04 11:52:53;;;;;;;2.60;0.50;;;26.30;80.80;;;;;;4989438;28;20483;-58
2022/08/04 11:55:21;;;;;;;0.70;0.30;;;26.90;78.30;;;;;;4986888;28;20018;-59
2022/08/04 11:57:48;;;;;;;2.58;0.65;;;27.40;74.50;;;;;;4978622;28;20022;-58
2022/08/04 12:00:16;;;;;;;4.72;0.70;;;28.30;70.60;;;;;;4989328;28;20050;-57
2022/08/04 12:02:48;;;;;;;4.20;0.77;;;28.50;69.10;;;;;;4986238;28;20054;-58
2022/08/04 12:05:19;;;;;;;2.58;0.80;;;28.50;68.20;;;;;;4992614;28;20038;-58
2022/08/04 12:08:18;;;;;;;1.92;0.75;;;28.30;67.80;;;;;;4986022;28;20025;-58
2022/08/04 12:11:12;;;;;;;1.48;0.50;;;27.80;69.50;;;;;;4988546;28;20035;-57
2022/08/04 12:13:44;;;;;;;4.38;1.00;;;27.10;71.70;;;;;;4986321;28;20030;-59
2022/08/04 12:16:14;;;;;;;2.83;0.65;;;26.80;71.80;;;;;;4990900;28;20048;-58
2022/08/04 12:18:55;;;;;;;2.60;0.70;;;27.60;70.80;;;;;;4990169;28;20026;-58
2022/08/04 12:21:44;;;;;;;1.38;0.80;;;28.60;66.50;;;;;;4991497;28;20092;-59
2022/08/04 12:24:28;;;;;;;4.53;0.82;;;28.80;64.90;;;;;;4992669;28;20061;-58
2022/08/04 12:27:05;;;;;;;1.30;0.50;;;28.90;63.70;;;;;;4989016;28;20557;-59
2022/08/04 12:29:34;;;;;;;3.58;0.90;;;29.00;63.10;;;;;;4987485;28;20502;-58
2022/08/04 12:32:10;;;;;;;1.60;0.57;;;29.00;63.60;;;;;;4987927;28;20383;-58
2022/08/04 12:34:47;;;;;;;2.67;0.73;;;29.70;61.40;;;;;;4992363;28;20755;-58
2022/08/04 12:37:28;;;;;;;2.75;0.70;;;29.50;59.10;;;;;;4989418;28;20040;-57
2022/08/04 12:39:58;;;;;;;4.15;0.70;;;29.40;58.40;;;;;;4987816;28;20042;-59
2022/08/04 12:42:29;;;;;;;2.58;0.50;;;29.30;58.90;;;;;;4986756;28;20092;-59
2022/08/04 12:44:57;;;;;;;3.55;0.68;;;28.70;58.90;;;;;;4989506;28;20544;-59
2022/08/04 12:47:26;;;;;;;2.45;0.95;;;27.70;60.10;;;;;;4987167;28;20022;-58
2022/08/04 12:49:53;;;;;;;2.28;0.70;;;28.10;59.90;;;;;;4987253;28;20049;-59
2022/08/04 12:52:21;;;;;;;3.55;1.10;;;28.40;58.70;;;;;;4989620;28;20037;-58
2022/08/04 12:54:53;;;;;;;2.80;0.47;;;28.40;58.70;;;;;;4980095;28;21834;-58
2022/08/04 12:57:20;;;;;;;3.53;0.80;;;29.20;58.00;;;;;;4983545;28;20423;-58
2022/08/04 12:59:46;;;;;;;4.93;0.90;;;29.40;55.50;;;;;;4987681;28;20122;-58
2022/08/04 13:02:35;;;;;;;1.13;0.60;;;30.10;53.50;;;;;;4987903;28;20434;-57
2022/08/04 13:05:04;;;;;;;4.78;0.80;;;30.60;52.90;;;;;;4985665;28;20077;-57
2022/08/04 13:07:39;;;;;;;1.88;0.63;;;30.80;51.70;;;;;;4983630;28;20027;-57
2022/08/04 13:10:14;;;;;;;3.58;0.85;;;30.80;50.70;;;;;;4988453;28;20057;-57
2022/08/04 13:12:50;;;;;;;3.70;1.30;;;29.90;59.60;;;;;;4986088;28;20933;-58
2022/08/04 13:15:20;;;;;;;4.95;1.10;;;29.70;66.70;;;;;;4991762;28;20026;-57
2022/08/04 13:17:58;;;;;;;3.30;0.68;;;30.40;65.40;;;;;;4986668;28;20049;-58
2022/08/04 13:20:26;;;;;;;1.70;0.80;;;30.50;66.00;;;;;;4983100;28;20387;-57
2022/08/04 13:23:03;;;;;;;3.22;0.82;;;31.10;65.60;;;;;;4989410;28;20047;-57
2022/08/04 13:25:30;;;;;;;7.97;1.65;;;30.80;65.80;;;;;;4986823;28;20042;-57
2022/08/04 13:27:58;;;;;;;5.05;1.42;;;30.70;66.50;;;;;;4990096;28;20042;-57
2022/08/04 13:30:26;;;;;;;3.35;0.90;;;30.30;67.40;;;;;;4986528;28;20121;-58
2022/08/04 13:32:55;;;;;;;5.82;0.88;;;30.90;66.70;;;;;;4981600;28;20022;-58
2022/08/04 13:35:22;;;;;;;9.65;1.05;;;30.70;68.40;;;;;;4987831;28;20041;-58
2022/08/04 13:37:48;;;;;;;5.18;1.17;;;29.90;70.10;;;;;;4985526;28;20030;-57
2022/08/04 13:40:15;;;;;;;5.88;1.13;;;29.20;73.80;;;;;;4986015;28;20030;-58